Time;durP1;ratioP1;P1;durP2;ratioP2;P2;SDS_P1;SDS_P2;PMS_P1;PMS_P2;Temp;Humidity;BMP_temperature;BMP_pressure;BME280_temperature;BME280_humidity;BME280_pressure;Samples;Min_cycle;Max_cycle;Signal;HPM_P1;HPM_P2
2024/02/15 00:20:13;;;;;;;9.80;7.27;;;5.40;95.20;;;;;;5468301;25;20274;-83
2024/02/15 00:50:09;;;;;;;13.87;7.40;;;5.30;97.20;;;;;;5454569;24;20593;-85
2024/02/15 01:15:20;;;;;;;10.40;7.70;;;5.30;96.40;;;;;;5453469;24;20626;-85
2024/02/15 01:30:56;;;;;;;10.47;7.80;;;5.30;96.70;;;;;;5476918;24;20186;-84
2024/02/15 02:01:34;;;;;;;12.73;7.80;;;5.30;95.40;;;;;;5773012;23;20692;-84
2024/02/15 04:18:15;;;;;;;12.70;8.50;;;5.40;95.40;;;;;;5591552;24;20728;-84
2024/02/15 04:43:52;;;;;;;13.63;9.00;;;5.40;96.90;;;;;;5702531;24;20667;-83
2024/02/15 05:08:48;;;;;;;12.33;9.23;;;5.30;98.80;;;;;;5595063;24;21165;-84
2024/02/15 05:34:30;;;;;;;12.80;8.97;;;5.40;96.30;;;;;;5567988;24;20192;-84
2024/02/15 06:09:37;;;;;;;14.43;9.53;;;5.60;96.20;;;;;;5543519;24;20219;-84
2024/02/15 07:05:52;;;;;;;26.10;15.90;;;5.50;99.90;;;;;;5623102;25;20364;-88
2024/02/15 07:36:21;;;;;;;32.00;18.63;;;5.50;99.90;;;;;;5895708;23;20392;-84
2024/02/15 09:17:40;;;;;;;47.20;31.03;;;5.70;99.90;;;;;;5951132;23;20251;-85
2024/02/15 09:42:59;;;;;;;46.87;31.40;;;6.20;99.90;;;;;;5913802;23;20349;-83
2024/02/15 10:08:24;;;;;;;51.47;29.87;;;6.40;99.90;;;;;;5692893;24;20210;-87
2024/02/15 12:30:44;;;;;;;40.23;29.70;;;9.00;99.90;;;;;;5511582;25;20320;-84
2024/02/15 13:46:55;;;;;;;34.57;22.07;;;9.40;99.90;;;;;;5655677;24;20387;-84
2024/02/15 13:51:14;;;;;;;30.03;21.83;;;9.40;99.90;;;;;;5644853;24;20588;-85
2024/02/15 14:16:49;;;;;;;27.13;20.63;;;8.90;99.90;;;;;;5547176;24;20505;-85
2024/02/15 14:47:33;;;;;;;26.20;19.40;;;9.00;99.90;;;;;;5633610;24;20641;-84
2024/02/15 15:13:07;;;;;;;31.00;21.33;;;8.50;99.90;;;;;;5788816;24;20424;-85
2024/02/15 15:32:54;;;;;;;30.57;20.43;;;8.30;99.90;;;;;;5553312;24;20567;-82
2024/02/15 15:58:48;;;;;;;27.70;20.13;;;8.00;99.90;;;;;;5606395;24;20262;-83
2024/02/15 16:03:09;;;;;;;27.57;20.20;;;8.00;99.90;;;;;;5634982;24;20533;-83
2024/02/15 16:23:42;;;;;;;28.07;20.20;;;7.90;99.90;;;;;;5713748;24;21256;-84
2024/02/15 16:59:37;;;;;;;27.20;19.50;;;7.80;99.90;;;;;;5910951;23;21051;-83
2024/02/15 17:29:28;;;;;;;26.80;19.47;;;7.70;99.90;;;;;;5853505;23;20662;-85
2024/02/15 17:50:25;;;;;;;25.93;18.77;;;7.70;99.90;;;;;;5915086;23;20224;-85
2024/02/15 17:54:44;;;;;;;28.23;19.10;;;7.70;99.90;;;;;;5833577;23;20690;-85
2024/02/15 18:10:26;;;;;;;27.17;19.33;;;7.50;99.90;;;;;;5641047;24;20210;-85
2024/02/15 18:55:48;;;;;;;30.27;21.13;;;7.70;99.90;;;;;;5445723;25;20993;-85
2024/02/15 19:20:56;;;;;;;30.07;20.60;;;7.70;99.90;;;;;;5514255;24;20528;-86
2024/02/15 19:41:56;;;;;;;29.77;20.00;;;7.70;99.90;;;;;;5681983;24;20190;-84
2024/02/15 20:07:19;;;;;;;33.83;21.93;;;7.60;99.90;;;;;;5663187;24;20235;-83
2024/02/15 21:07:45;;;;;;;31.33;21.10;;;7.50;99.90;;;;;;5668082;24;20586;-85
2024/02/15 21:33:18;;;;;;;32.00;22.37;;;7.50;99.90;;;;;;5769561;24;20183;-84
2024/02/15 21:53:43;;;;;;;28.70;21.33;;;7.40;99.90;;;;;;5615542;24;20574;-84
2024/02/15 22:39:15;;;;;;;31.57;21.13;;;7.40;99.90;;;;;;5604237;24;21183;-84
2024/02/15 23:04:02;;;;;;;31.97;21.23;;;7.30;99.90;;;;;;5717603;24;20680;-86
2024/02/15 23:19:58;;;;;;;30.37;21.03;;;7.30;99.90;;;;;;5901880;23;20161;-83
2024/02/15 23:44:36;;;;;;;28.70;18.93;;;7.50;99.90;;;;;;5626117;24;20682;-85
